sensor_id;sensor_type;location;lat;lon;timestamp;temperature;humidity
61641;HTU21D;62201;49.966;8.342;2023-01-31T00:01:11;4.20;90.08
61641;HTU21D;62201;49.966;8.342;2023-01-31T00:03:38;4.21;89.98
61641;HTU21D;62201;49.966;8.342;2023-01-31T00:06:23;4.26;90.47
61641;HTU21D;62201;49.966;8.342;2023-01-31T00:08:49;4.32;90.08
61641;HTU21D;62201;49.966;8.342;2023-01-31T00:11:16;4.35;89.93
61641;HTU21D;62201;49.966;8.342;2023-01-31T00:13:43;4.34;90.15
61641;HTU21D;62201;49.966;8.342;2023-01-31T00:16:10;4.36;89.95
61641;HTU21D;62201;49.966;8.342;2023-01-31T00:18:36;4.26;90.41
61641;HTU21D;62201;49.966;8.342;2023-01-31T00:21:15;4.21;90.69
61641;HTU21D;62201;49.966;8.342;2023-01-31T00:23:42;4.15;90.58
61641;HTU21D;62201;49.966;8.342;2023-01-31T00:26:14;4.03;91.05
61641;HTU21D;62201;49.966;8.342;2023-01-31T00:28:41;3.94;91.53
61641;HTU21D;62201;49.966;8.342;2023-01-31T00:31:07;3.86;91.66
61641;HTU21D;62201;49.966;8.342;2023-01-31T00:33:37;3.79;91.76
61641;HTU21D;62201;49.966;8.342;2023-01-31T00:36:11;3.72;92.18
61641;HTU21D;62201;49.966;8.342;2023-01-31T00:38:37;3.61;92.08
61641;HTU21D;62201;49.966;8.342;2023-01-31T00:41:03;3.50;92.51
61641;HTU21D;62201;49.966;8.342;2023-01-31T00:43:32;3.40;92.47
61641;HTU21D;62201;49.966;8.342;2023-01-31T00:45:58;3.30;94.14
61641;HTU21D;62201;49.966;8.342;2023-01-31T00:48:24;3.28;94.41
61641;HTU21D;62201;49.966;8.342;2023-01-31T00:50:49;3.17;95.36
61641;HTU21D;62201;49.966;8.342;2023-01-31T00:53:15;3.11;94.72
61641;HTU21D;62201;49.966;8.342;2023-01-31T00:55:42;3.00;95.10
61641;HTU21D;62201;49.966;8.342;2023-01-31T00:58:08;2.95;95.44
61641;HTU21D;62201;49.966;8.342;2023-01-31T01:00:33;2.95;97.09
61641;HTU21D;62201;49.966;8.342;2023-01-31T01:02:59;3.02;95.96
61641;HTU21D;62201;49.966;8.342;2023-01-31T01:05:24;3.05;95.26
61641;HTU21D;62201;49.966;8.342;2023-01-31T01:07:50;3.03;95.90
61641;HTU21D;62201;49.966;8.342;2023-01-31T01:10:15;3.09;95.87
61641;HTU21D;62201;49.966;8.342;2023-01-31T01:12:41;3.09;95.08
61641;HTU21D;62201;49.966;8.342;2023-01-31T01:15:06;3.08;95.33
61641;HTU21D;62201;49.966;8.342;2023-01-31T01:17:32;3.03;94.85
61641;HTU21D;62201;49.966;8.342;2023-01-31T01:19:57;3.05;95.78
61641;HTU21D;62201;49.966;8.342;2023-01-31T01:22:27;3.04;95.43
61641;HTU21D;62201;49.966;8.342;2023-01-31T01:24:53;3.00;95.47
61641;HTU21D;62201;49.966;8.342;2023-01-31T01:27:18;2.98;95.57
61641;HTU21D;62201;49.966;8.342;2023-01-31T01:29:44;2.89;95.55
61641;HTU21D;62201;49.966;8.342;2023-01-31T01:32:09;2.88;96.40
61641;HTU21D;62201;49.966;8.342;2023-01-31T01:34:35;2.99;96.05
61641;HTU21D;62201;49.966;8.342;2023-01-31T01:37:01;3.06;95.38
61641;HTU21D;62201;49.966;8.342;2023-01-31T01:39:34;3.15;94.97
61641;HTU21D;62201;49.966;8.342;2023-01-31T01:41:59;3.25;94.46
61641;HTU21D;62201;49.966;8.342;2023-01-31T01:47:19;3.36;93.46
61641;HTU21D;62201;49.966;8.342;2023-01-31T01:49:48;3.42;93.19
61641;HTU21D;62201;49.966;8.342;2023-01-31T01:52:15;3.48;92.69
61641;HTU21D;62201;49.966;8.342;2023-01-31T01:54:47;3.49;92.53
61641;HTU21D;62201;49.966;8.342;2023-01-31T01:57:16;3.53;92.51
61641;HTU21D;62201;49.966;8.342;2023-01-31T01:59:46;3.52;92.52
61641;HTU21D;62201;49.966;8.342;2023-01-31T02:02:13;3.54;92.06
61641;HTU21D;62201;49.966;8.342;2023-01-31T02:04:39;3.54;92.01
61641;HTU21D;62201;49.966;8.342;2023-01-31T02:07:06;3.54;91.66
61641;HTU21D;62201;49.966;8.342;2023-01-31T02:09:41;3.50;92.22
61641;HTU21D;62201;49.966;8.342;2023-01-31T02:12:11;3.49;92.43
61641;HTU21D;62201;49.966;8.342;2023-01-31T02:14:36;3.56;91.69
61641;HTU21D;62201;49.966;8.342;2023-01-31T02:17:02;3.61;91.19
61641;HTU21D;62201;49.966;8.342;2023-01-31T02:22:32;3.67;90.93
61641;HTU21D;62201;49.966;8.342;2023-01-31T02:31:10;3.58;90.66
61641;HTU21D;62201;49.966;8.342;2023-01-31T02:39:37;3.42;91.21
61641;HTU21D;62201;49.966;8.342;2023-01-31T02:42:14;3.42;90.99
61641;HTU21D;62201;49.966;8.342;2023-01-31T03:00:40;3.06;92.09
61641;HTU21D;62201;49.966;8.342;2023-01-31T03:16:25;3.09;91.98
61641;HTU21D;62201;49.966;8.342;2023-01-31T03:29:16;3.26;90.70
61641;HTU21D;62201;49.966;8.342;2023-01-31T03:42:05;3.40;89.47
61641;HTU21D;62201;49.966;8.342;2023-01-31T03:44:54;3.34;89.81
61641;HTU21D;62201;49.966;8.342;2023-01-31T03:54:11;3.20;90.32
61641;HTU21D;62201;49.966;8.342;2023-01-31T03:56:53;3.15;90.62
61641;HTU21D;62201;49.966;8.342;2023-01-31T03:59:26;3.21;90.09
61641;HTU21D;62201;49.966;8.342;2023-01-31T04:01:54;3.15;90.41
61641;HTU21D;62201;49.966;8.342;2023-01-31T04:04:24;3.14;90.60
61641;HTU21D;62201;49.966;8.342;2023-01-31T04:06:53;3.12;90.60
61641;HTU21D;62201;49.966;8.342;2023-01-31T04:09:18;3.18;90.18
61641;HTU21D;62201;49.966;8.342;2023-01-31T04:11:47;3.24;90.06
61641;HTU21D;62201;49.966;8.342;2023-01-31T04:14:13;3.27;89.53
61641;HTU21D;62201;49.966;8.342;2023-01-31T04:16:38;3.28;89.51
61641;HTU21D;62201;49.966;8.342;2023-01-31T04:19:04;3.20;89.99
61641;HTU21D;62201;49.966;8.342;2023-01-31T04:21:30;3.17;90.21
61641;HTU21D;62201;49.966;8.342;2023-01-31T04:23:55;3.15;90.41
61641;HTU21D;62201;49.966;8.342;2023-01-31T04:26:20;3.20;89.86
61641;HTU21D;62201;49.966;8.342;2023-01-31T04:28:46;3.15;90.10
61641;HTU21D;62201;49.966;8.342;2023-01-31T04:31:11;3.16;90.19
61641;HTU21D;62201;49.966;8.342;2023-01-31T04:33:37;3.10;90.01
61641;HTU21D;62201;49.966;8.342;2023-01-31T04:36:02;3.00;90.37
61641;HTU21D;62201;49.966;8.342;2023-01-31T04:38:28;2.98;90.98
61641;HTU21D;62201;49.966;8.342;2023-01-31T04:40:53;2.90;91.09
61641;HTU21D;62201;49.966;8.342;2023-01-31T04:43:19;2.89;91.18
61641;HTU21D;62201;49.966;8.342;2023-01-31T04:45:44;2.85;91.33
61641;HTU21D;62201;49.966;8.342;2023-01-31T04:48:09;2.82;91.47
61641;HTU21D;62201;49.966;8.342;2023-01-31T04:50:35;2.84;91.28
61641;HTU21D;62201;49.966;8.342;2023-01-31T04:53:00;2.87;91.09
61641;HTU21D;62201;49.966;8.342;2023-01-31T04:55:26;2.82;91.33
61641;HTU21D;62201;49.966;8.342;2023-01-31T04:57:52;2.81;91.38
61641;HTU21D;62201;49.966;8.342;2023-01-31T05:00:18;2.82;91.33
61641;HTU21D;62201;49.966;8.342;2023-01-31T05:02:44;2.82;91.15
61641;HTU21D;62201;49.966;8.342;2023-01-31T05:05:09;2.83;91.32
61641;HTU21D;62201;49.966;8.342;2023-01-31T05:07:37;2.76;91.22
61641;HTU21D;62201;49.966;8.342;2023-01-31T05:10:03;2.75;91.63
61641;HTU21D;62201;49.966;8.342;2023-01-31T05:12:28;2.87;91.21
61641;HTU21D;62201;49.966;8.342;2023-01-31T05:14:54;2.89;90.99
61641;HTU21D;62201;49.966;8.342;2023-01-31T05:17:19;2.87;90.98
61641;HTU21D;62201;49.966;8.342;2023-01-31T05:19:54;2.88;90.92
61641;HTU21D;62201;49.966;8.342;2023-01-31T05:22:20;2.91;90.78
61641;HTU21D;62201;49.966;8.342;2023-01-31T05:24:47;2.86;91.02
61641;HTU21D;62201;49.966;8.342;2023-01-31T05:27:12;2.83;90.87
61641;HTU21D;62201;49.966;8.342;2023-01-31T05:29:38;2.76;91.34
61641;HTU21D;62201;49.966;8.342;2023-01-31T05:32:03;2.68;91.43
61641;HTU21D;62201;49.966;8.342;2023-01-31T05:34:29;2.66;92.02
61641;HTU21D;62201;49.966;8.342;2023-01-31T05:36:57;2.65;92.03
61641;HTU21D;62201;49.966;8.342;2023-01-31T05:39:23;2.60;92.18
61641;HTU21D;62201;49.966;8.342;2023-01-31T05:41:48;2.64;91.82
61641;HTU21D;62201;49.966;8.342;2023-01-31T05:44:13;2.56;92.09
61641;HTU21D;62201;49.966;8.342;2023-01-31T05:46:40;2.50;92.46
61641;HTU21D;62201;49.966;8.342;2023-01-31T05:49:05;2.51;92.71
61641;HTU21D;62201;49.966;8.342;2023-01-31T05:51:31;2.47;92.86
61641;HTU21D;62201;49.966;8.342;2023-01-31T05:53:57;2.44;93.41
61641;HTU21D;62201;49.966;8.342;2023-01-31T05:56:22;2.42;93.05
61641;HTU21D;62201;49.966;8.342;2023-01-31T05:58:48;2.40;93.69
61641;HTU21D;62201;49.966;8.342;2023-01-31T06:01:23;2.44;93.10
61641;HTU21D;62201;49.966;8.342;2023-01-31T06:03:48;2.42;93.42
61641;HTU21D;62201;49.966;8.342;2023-01-31T06:06:14;2.40;93.44
61641;HTU21D;62201;49.966;8.342;2023-01-31T06:08:40;2.42;93.41
61641;HTU21D;62201;49.966;8.342;2023-01-31T06:11:07;2.44;93.29
61641;HTU21D;62201;49.966;8.342;2023-01-31T06:13:35;2.44;93.21
61641;HTU21D;62201;49.966;8.342;2023-01-31T06:16:01;2.52;92.96
61641;HTU21D;62201;49.966;8.342;2023-01-31T06:18:26;2.62;92.27
61641;HTU21D;62201;49.966;8.342;2023-01-31T06:20:52;2.67;92.01
61641;HTU21D;62201;49.966;8.342;2023-01-31T06:23:18;2.72;91.50
61641;HTU21D;62201;49.966;8.342;2023-01-31T06:25:43;2.79;91.01
61641;HTU21D;62201;49.966;8.342;2023-01-31T06:28:09;2.76;91.08
61641;HTU21D;62201;49.966;8.342;2023-01-31T06:30:34;2.78;90.52
61641;HTU21D;62201;49.966;8.342;2023-01-31T06:33:00;2.75;90.89
61641;HTU21D;62201;49.966;8.342;2023-01-31T06:35:26;2.71;90.90
61641;HTU21D;62201;49.966;8.342;2023-01-31T06:37:51;2.69;91.30
61641;HTU21D;62201;49.966;8.342;2023-01-31T06:40:17;2.65;91.69
61641;HTU21D;62201;49.966;8.342;2023-01-31T06:42:42;2.62;91.65
61641;HTU21D;62201;49.966;8.342;2023-01-31T06:45:08;2.67;91.56
61641;HTU21D;62201;49.966;8.342;2023-01-31T06:47:34;2.66;91.66
61641;HTU21D;62201;49.966;8.342;2023-01-31T06:49:59;2.61;91.77
61641;HTU21D;62201;49.966;8.342;2023-01-31T06:52:24;2.62;93.85
61641;HTU21D;62201;49.966;8.342;2023-01-31T06:54:50;2.58;93.27
61641;HTU21D;62201;49.966;8.342;2023-01-31T06:57:15;2.56;92.72
61641;HTU21D;62201;49.966;8.342;2023-01-31T06:59:41;2.52;92.86
61641;HTU21D;62201;49.966;8.342;2023-01-31T07:02:07;2.44;93.02
61641;HTU21D;62201;49.966;8.342;2023-01-31T07:04:33;2.41;93.66
61641;HTU21D;62201;49.966;8.342;2023-01-31T07:06:58;2.37;93.62
61641;HTU21D;62201;49.966;8.342;2023-01-31T07:09:23;2.34;93.95
61641;HTU21D;62201;49.966;8.342;2023-01-31T07:11:49;2.34;94.07
61641;HTU21D;62201;49.966;8.342;2023-01-31T07:14:14;2.30;93.94
61641;HTU21D;62201;49.966;8.342;2023-01-31T07:16:40;2.24;93.92
61641;HTU21D;62201;49.966;8.342;2023-01-31T07:19:05;2.20;94.46
61641;HTU21D;62201;49.966;8.342;2023-01-31T07:21:30;2.15;94.65
61641;HTU21D;62201;49.966;8.342;2023-01-31T07:23:57;2.16;95.36
61641;HTU21D;62201;49.966;8.342;2023-01-31T07:26:23;2.26;95.25
61641;HTU21D;62201;49.966;8.342;2023-01-31T07:28:48;2.30;94.90
61641;HTU21D;62201;49.966;8.342;2023-01-31T07:31:14;2.34;95.62
61641;HTU21D;62201;49.966;8.342;2023-01-31T07:33:40;2.38;94.98
61641;HTU21D;62201;49.966;8.342;2023-01-31T07:36:07;2.49;94.60
61641;HTU21D;62201;49.966;8.342;2023-01-31T07:38:33;2.64;93.70
61641;HTU21D;62201;49.966;8.342;2023-01-31T07:41:00;2.81;92.76
61641;HTU21D;62201;49.966;8.342;2023-01-31T07:43:26;2.93;91.95
61641;HTU21D;62201;49.966;8.342;2023-01-31T07:45:52;3.01;91.29
61641;HTU21D;62201;49.966;8.342;2023-01-31T07:48:18;3.08;90.56
61641;HTU21D;62201;49.966;8.342;2023-01-31T07:50:51;3.13;90.50
61641;HTU21D;62201;49.966;8.342;2023-01-31T07:53:17;3.18;90.56
61641;HTU21D;62201;49.966;8.342;2023-01-31T07:55:43;3.23;89.79
61641;HTU21D;62201;49.966;8.342;2023-01-31T07:58:13;3.27;89.79
61641;HTU21D;62201;49.966;8.342;2023-01-31T08:00:39;3.27;89.79
61641;HTU21D;62201;49.966;8.342;2023-01-31T08:03:25;3.23;90.00
61641;HTU21D;62201;49.966;8.342;2023-01-31T08:08:25;3.09;90.47
61641;HTU21D;62201;49.966;8.342;2023-01-31T08:10:51;3.03;91.03
61641;HTU21D;62201;49.966;8.342;2023-01-31T08:13:16;2.99;91.66
61641;HTU21D;62201;49.966;8.342;2023-01-31T08:15:41;2.95;91.71
61641;HTU21D;62201;49.966;8.342;2023-01-31T08:18:07;2.93;92.09
61641;HTU21D;62201;49.966;8.342;2023-01-31T08:20:32;2.89;92.58
61641;HTU21D;62201;49.966;8.342;2023-01-31T08:22:58;2.86;92.88
61641;HTU21D;62201;49.966;8.342;2023-01-31T08:25:25;2.86;93.18
61641;HTU21D;62201;49.966;8.342;2023-01-31T08:27:53;2.85;93.52
61641;HTU21D;62201;49.966;8.342;2023-01-31T08:30:19;2.84;93.77
61641;HTU21D;62201;49.966;8.342;2023-01-31T08:32:44;2.86;93.84
61641;HTU21D;62201;49.966;8.342;2023-01-31T08:35:10;2.87;93.82
61641;HTU21D;62201;49.966;8.342;2023-01-31T08:37:35;2.93;93.63
61641;HTU21D;62201;49.966;8.342;2023-01-31T08:40:00;2.96;93.64
61641;HTU21D;62201;49.966;8.342;2023-01-31T08:42:26;3.00;93.24
61641;HTU21D;62201;49.966;8.342;2023-01-31T08:44:51;3.06;93.27
61641;HTU21D;62201;49.966;8.342;2023-01-31T08:47:16;3.12;92.84
61641;HTU21D;62201;49.966;8.342;2023-01-31T08:49:42;3.19;92.59
61641;HTU21D;62201;49.966;8.342;2023-01-31T08:52:07;3.21;92.08
61641;HTU21D;62201;49.966;8.342;2023-01-31T08:54:32;3.26;92.34
61641;HTU21D;62201;49.966;8.342;2023-01-31T08:56:58;3.31;92.25
61641;HTU21D;62201;49.966;8.342;2023-01-31T08:59:23;3.39;92.27
61641;HTU21D;62201;49.966;8.342;2023-01-31T09:01:48;3.50;91.87
61641;HTU21D;62201;49.966;8.342;2023-01-31T09:04:14;3.58;91.64
61641;HTU21D;62201;49.966;8.342;2023-01-31T09:06:39;3.65;91.61
61641;HTU21D;62201;49.966;8.342;2023-01-31T09:09:05;3.71;91.13
61641;HTU21D;62201;49.966;8.342;2023-01-31T09:11:30;3.71;91.34
61641;HTU21D;62201;49.966;8.342;2023-01-31T09:13:56;3.64;91.02
61641;HTU21D;62201;49.966;8.342;2023-01-31T09:16:22;3.69;91.13
61641;HTU21D;62201;49.966;8.342;2023-01-31T09:18:47;3.69;91.48
61641;HTU21D;62201;49.966;8.342;2023-01-31T09:21:15;3.68;91.41
61641;HTU21D;62201;49.966;8.342;2023-01-31T09:23:41;3.70;91.68
61641;HTU21D;62201;49.966;8.342;2023-01-31T09:26:07;3.73;91.57
61641;HTU21D;62201;49.966;8.342;2023-01-31T09:28:33;3.76;91.59
61641;HTU21D;62201;49.966;8.342;2023-01-31T09:31:07;3.79;91.32
61641;HTU21D;62201;49.966;8.342;2023-01-31T09:33:33;3.82;91.21
61641;HTU21D;62201;49.966;8.342;2023-01-31T09:36:11;3.85;91.15
61641;HTU21D;62201;49.966;8.342;2023-01-31T09:38:36;3.88;90.88
61641;HTU21D;62201;49.966;8.342;2023-01-31T09:41:21;3.90;91.50
61641;HTU21D;62201;49.966;8.342;2023-01-31T09:43:52;3.90;91.15
61641;HTU21D;62201;49.966;8.342;2023-01-31T09:46:24;3.86;91.42
61641;HTU21D;62201;49.966;8.342;2023-01-31T09:48:54;3.86;91.97
61641;HTU21D;62201;49.966;8.342;2023-01-31T09:51:20;3.85;92.15
61641;HTU21D;62201;49.966;8.342;2023-01-31T09:53:46;3.88;92.38
61641;HTU21D;62201;49.966;8.342;2023-01-31T09:56:22;3.90;92.34
61641;HTU21D;62201;49.966;8.342;2023-01-31T10:04:23;3.84;93.39
61641;HTU21D;62201;49.966;8.342;2023-01-31T10:07:08;3.87;93.54
61641;HTU21D;62201;49.966;8.342;2023-01-31T10:09:43;3.88;93.17
61641;HTU21D;62201;49.966;8.342;2023-01-31T10:12:16;3.94;93.18
61641;HTU21D;62201;49.966;8.342;2023-01-31T10:14:52;3.93;93.09
61641;HTU21D;62201;49.966;8.342;2023-01-31T10:17:23;3.97;92.54
61641;HTU21D;62201;49.966;8.342;2023-01-31T10:19:55;4.01;92.15
61641;HTU21D;62201;49.966;8.342;2023-01-31T10:22:35;4.01;92.12
61641;HTU21D;62201;49.966;8.342;2023-01-31T10:25:26;4.04;92.05
61641;HTU21D;62201;49.966;8.342;2023-01-31T10:30:28;4.18;91.78
61641;HTU21D;62201;49.966;8.342;2023-01-31T10:33:16;4.26;91.66
61641;HTU21D;62201;49.966;8.342;2023-01-31T10:35:44;4.30;90.84
61641;HTU21D;62201;49.966;8.342;2023-01-31T10:38:31;4.29;91.16
61641;HTU21D;62201;49.966;8.342;2023-01-31T10:41:05;4.31;90.93
61641;HTU21D;62201;49.966;8.342;2023-01-31T10:43:38;4.37;90.36
61641;HTU21D;62201;49.966;8.342;2023-01-31T10:46:13;4.42;90.50
61641;HTU21D;62201;49.966;8.342;2023-01-31T10:48:39;4.47;90.13
61641;HTU21D;62201;49.966;8.342;2023-01-31T10:56:30;4.76;88.22
61641;HTU21D;62201;49.966;8.342;2023-01-31T10:58:59;4.84;88.05
61641;HTU21D;62201;49.966;8.342;2023-01-31T11:01:25;4.82;87.48
61641;HTU21D;62201;49.966;8.342;2023-01-31T11:03:52;4.78;87.65
61641;HTU21D;62201;49.966;8.342;2023-01-31T11:06:19;4.77;87.89
61641;HTU21D;62201;49.966;8.342;2023-01-31T11:08:58;4.78;88.02
61641;HTU21D;62201;49.966;8.342;2023-01-31T11:11:26;4.79;88.17
61641;HTU21D;62201;49.966;8.342;2023-01-31T11:14:04;4.74;88.05
61641;HTU21D;62201;49.966;8.342;2023-01-31T11:16:33;4.73;88.08
61641;HTU21D;62201;49.966;8.342;2023-01-31T11:19:02;4.73;87.51
61641;HTU21D;62201;49.966;8.342;2023-01-31T11:21:33;4.72;87.55
61641;HTU21D;62201;49.966;8.342;2023-01-31T11:24:02;4.71;88.02
61641;HTU21D;62201;49.966;8.342;2023-01-31T11:26:34;4.79;88.05
61641;HTU21D;62201;49.966;8.342;2023-01-31T11:29:01;4.80;88.17
61641;HTU21D;62201;49.966;8.342;2023-01-31T11:31:34;4.82;88.07
61641;HTU21D;62201;49.966;8.342;2023-01-31T11:34:04;4.84;88.21
61641;HTU21D;62201;49.966;8.342;2023-01-31T11:36:42;4.86;88.28
61641;HTU21D;62201;49.966;8.342;2023-01-31T11:39:26;4.89;88.16
61641;HTU21D;62201;49.966;8.342;2023-01-31T11:41:53;4.91;88.27
61641;HTU21D;62201;49.966;8.342;2023-01-31T11:44:22;4.87;88.09
61641;HTU21D;62201;49.966;8.342;2023-01-31T11:47:01;4.83;88.52
61641;HTU21D;62201;49.966;8.342;2023-01-31T11:49:38;4.91;88.76
61641;HTU21D;62201;49.966;8.342;2023-01-31T11:52:14;5.00;87.78
61641;HTU21D;62201;49.966;8.342;2023-01-31T11:54:42;5.11;87.80
61641;HTU21D;62201;49.966;8.342;2023-01-31T11:57:15;5.19;87.41
61641;HTU21D;62201;49.966;8.342;2023-01-31T11:59:41;5.20;86.72
61641;HTU21D;62201;49.966;8.342;2023-01-31T12:02:20;5.20;87.01
61641;HTU21D;62201;49.966;8.342;2023-01-31T12:04:49;5.20;87.70
61641;HTU21D;62201;49.966;8.342;2023-01-31T12:07:26;5.16;87.78
61641;HTU21D;62201;49.966;8.342;2023-01-31T12:09:54;5.20;87.76
61641;HTU21D;62201;49.966;8.342;2023-01-31T12:12:56;5.25;87.81
61641;HTU21D;62201;49.966;8.342;2023-01-31T12:15:14;5.26;87.80
61641;HTU21D;62201;49.966;8.342;2023-01-31T12:17:46;5.20;87.61
61641;HTU21D;62201;49.966;8.342;2023-01-31T12:38:52;5.35;87.99
61641;HTU21D;62201;49.966;8.342;2023-01-31T12:52:41;5.45;87.32
61641;HTU21D;62201;49.966;8.342;2023-01-31T12:57:41;5.52;86.62
61641;HTU21D;62201;49.966;8.342;2023-01-31T13:03:15;5.63;86.89
61641;HTU21D;62201;49.966;8.342;2023-01-31T13:05:53;5.69;86.64
61641;HTU21D;62201;49.966;8.342;2023-01-31T13:08:23;5.71;86.83
61641;HTU21D;62201;49.966;8.342;2023-01-31T13:10:57;5.77;86.54
61641;HTU21D;62201;49.966;8.342;2023-01-31T13:13:33;5.83;86.26
61641;HTU21D;62201;49.966;8.342;2023-01-31T13:16:01;5.86;85.75
61641;HTU21D;62201;49.966;8.342;2023-01-31T13:18:32;5.93;85.86
61641;HTU21D;62201;49.966;8.342;2023-01-31T13:21:02;5.96;86.14
61641;HTU21D;62201;49.966;8.342;2023-01-31T13:23:32;5.99;85.55
61641;HTU21D;62201;49.966;8.342;2023-01-31T13:26:10;6.00;85.75
61641;HTU21D;62201;49.966;8.342;2023-01-31T13:28:54;6.06;85.64
61641;HTU21D;62201;49.966;8.342;2023-01-31T13:31:27;6.07;85.95
61641;HTU21D;62201;49.966;8.342;2023-01-31T13:33:59;6.07;86.25
61641;HTU21D;62201;49.966;8.342;2023-01-31T13:36:37;6.08;86.55
61641;HTU21D;62201;49.966;8.342;2023-01-31T13:39:13;6.09;86.53
61641;HTU21D;62201;49.966;8.342;2023-01-31T13:41:41;6.10;86.33
61641;HTU21D;62201;49.966;8.342;2023-01-31T13:44:11;6.11;86.26
61641;HTU21D;62201;49.966;8.342;2023-01-31T13:46:51;6.09;87.03
61641;HTU21D;62201;49.966;8.342;2023-01-31T13:49:37;6.06;87.67
61641;HTU21D;62201;49.966;8.342;2023-01-31T13:52:22;6.02;87.37
61641;HTU21D;62201;49.966;8.342;2023-01-31T13:54:51;6.01;87.31
61641;HTU21D;62201;49.966;8.342;2023-01-31T13:59:55;5.94;88.30
61641;HTU21D;62201;49.966;8.342;2023-01-31T14:02:23;5.91;87.96
61641;HTU21D;62201;49.966;8.342;2023-01-31T14:04:49;5.89;88.64
61641;HTU21D;62201;49.966;8.342;2023-01-31T14:07:19;5.89;88.92
61641;HTU21D;62201;49.966;8.342;2023-01-31T14:12:36;5.91;90.34
61641;HTU21D;62201;49.966;8.342;2023-01-31T14:15:44;5.86;91.59
61641;HTU21D;62201;49.966;8.342;2023-01-31T14:18:10;5.86;92.17
61641;HTU21D;62201;49.966;8.342;2023-01-31T14:20:35;5.85;92.63
61641;HTU21D;62201;49.966;8.342;2023-01-31T14:23:30;5.78;94.67
61641;HTU21D;62201;49.966;8.342;2023-01-31T14:25:56;5.69;96.08
61641;HTU21D;62201;49.966;8.342;2023-01-31T14:28:22;5.60;96.87
61641;HTU21D;62201;49.966;8.342;2023-01-31T14:30:47;5.50;100.68
61641;HTU21D;62201;49.966;8.342;2023-01-31T14:40:59;5.21;108.45
61641;HTU21D;62201;49.966;8.342;2023-01-31T14:43:40;5.18;110.10
61641;HTU21D;62201;49.966;8.342;2023-01-31T14:49:14;5.17;110.66
61641;HTU21D;62201;49.966;8.342;2023-01-31T14:52:03;5.17;110.39
61641;HTU21D;62201;49.966;8.342;2023-01-31T14:57:27;5.10;113.22
61641;HTU21D;62201;49.966;8.342;2023-01-31T14:59:59;5.07;114.21
61641;HTU21D;62201;49.966;8.342;2023-01-31T15:05:10;5.11;112.77
61641;HTU21D;62201;49.966;8.342;2023-01-31T15:08:38;5.13;113.16
61641;HTU21D;62201;49.966;8.342;2023-01-31T15:11:13;5.15;112.11
61641;HTU21D;62201;49.966;8.342;2023-01-31T15:13:58;5.20;111.00
61641;HTU21D;62201;49.966;8.342;2023-01-31T15:16:31;5.21;111.70
61641;HTU21D;62201;49.966;8.342;2023-01-31T15:19:16;5.22;110.94
61641;HTU21D;62201;49.966;8.342;2023-01-31T15:21:53;5.26;110.25
61641;HTU21D;62201;49.966;8.342;2023-01-31T15:24:24;5.27;110.31
61641;HTU21D;62201;49.966;8.342;2023-01-31T15:26:53;5.27;110.46
61641;HTU21D;62201;49.966;8.342;2023-01-31T15:29:22;5.28;110.67
61641;HTU21D;62201;49.966;8.342;2023-01-31T15:31:51;5.26;110.87
61641;HTU21D;62201;49.966;8.342;2023-01-31T15:34:26;5.26;110.58
61641;HTU21D;62201;49.966;8.342;2023-01-31T15:39:31;5.25;110.17
61641;HTU21D;62201;49.966;8.342;2023-01-31T15:42:22;5.27;109.90
61641;HTU21D;62201;49.966;8.342;2023-01-31T15:44:48;5.27;109.81
61641;HTU21D;62201;49.966;8.342;2023-01-31T15:47:21;5.25;110.07
61641;HTU21D;62201;49.966;8.342;2023-01-31T15:49:47;5.28;109.92
61641;HTU21D;62201;49.966;8.342;2023-01-31T15:52:19;5.30;109.30
61641;HTU21D;62201;49.966;8.342;2023-01-31T15:55:02;5.30;109.39
61641;HTU21D;62201;49.966;8.342;2023-01-31T16:00:04;5.33;108.83
61641;HTU21D;62201;49.966;8.342;2023-01-31T16:02:31;5.31;108.97
61641;HTU21D;62201;49.966;8.342;2023-01-31T16:05:04;5.35;108.35
61641;HTU21D;62201;49.966;8.342;2023-01-31T16:07:30;5.36;108.37
61641;HTU21D;62201;49.966;8.342;2023-01-31T16:09:57;5.36;108.68
61641;HTU21D;62201;49.966;8.342;2023-01-31T16:12:24;5.36;108.63
61641;HTU21D;62201;49.966;8.342;2023-01-31T16:14:50;5.37;108.40
61641;HTU21D;62201;49.966;8.342;2023-01-31T16:17:24;5.38;108.14
61641;HTU21D;62201;49.966;8.342;2023-01-31T16:19:50;5.38;107.11
61641;HTU21D;62201;49.966;8.342;2023-01-31T16:22:27;5.43;106.72
61641;HTU21D;62201;49.966;8.342;2023-01-31T16:24:55;5.45;106.66
61641;HTU21D;62201;49.966;8.342;2023-01-31T16:27:21;5.47;106.08
61641;HTU21D;62201;49.966;8.342;2023-01-31T16:29:53;5.51;105.84
61641;HTU21D;62201;49.966;8.342;2023-01-31T16:32:30;5.52;105.82
61641;HTU21D;62201;49.966;8.342;2023-01-31T16:34:59;5.53;105.37
61641;HTU21D;62201;49.966;8.342;2023-01-31T16:37:32;5.53;105.46
61641;HTU21D;62201;49.966;8.342;2023-01-31T16:40:16;5.54;105.27
61641;HTU21D;62201;49.966;8.342;2023-01-31T16:42:43;5.53;105.01
61641;HTU21D;62201;49.966;8.342;2023-01-31T16:45:27;5.55;105.21
61641;HTU21D;62201;49.966;8.342;2023-01-31T16:47:53;5.57;105.24
61641;HTU21D;62201;49.966;8.342;2023-01-31T16:52:50;5.56;104.53
61641;HTU21D;62201;49.966;8.342;2023-01-31T16:55:21;5.57;104.82
61641;HTU21D;62201;49.966;8.342;2023-01-31T16:57:48;5.56;104.88
61641;HTU21D;62201;49.966;8.342;2023-01-31T17:02:49;5.62;103.99
61641;HTU21D;62201;49.966;8.342;2023-01-31T17:05:39;5.65;103.30
61641;HTU21D;62201;49.966;8.342;2023-01-31T17:08:13;5.70;103.27
61641;HTU21D;62201;49.966;8.342;2023-01-31T17:10:39;5.75;102.38
61641;HTU21D;62201;49.966;8.342;2023-01-31T17:13:12;5.76;101.93
61641;HTU21D;62201;49.966;8.342;2023-01-31T17:15:40;5.77;101.90
61641;HTU21D;62201;49.966;8.342;2023-01-31T17:18:05;5.82;101.60
61641;HTU21D;62201;49.966;8.342;2023-01-31T17:20:31;5.81;101.58
61641;HTU21D;62201;49.966;8.342;2023-01-31T17:22:57;5.83;101.69
61641;HTU21D;62201;49.966;8.342;2023-01-31T17:25:26;5.86;101.54
61641;HTU21D;62201;49.966;8.342;2023-01-31T17:27:52;5.89;100.75
61641;HTU21D;62201;49.966;8.342;2023-01-31T17:30:19;5.90;101.05
61641;HTU21D;62201;49.966;8.342;2023-01-31T17:32:45;5.94;100.31
61641;HTU21D;62201;49.966;8.342;2023-01-31T17:37:40;6.00;99.95
61641;HTU21D;62201;49.966;8.342;2023-01-31T17:40:05;6.01;100.16
61641;HTU21D;62201;49.966;8.342;2023-01-31T17:42:31;6.05;100.18
61641;HTU21D;62201;49.966;8.342;2023-01-31T17:44:56;6.05;100.06
61641;HTU21D;62201;49.966;8.342;2023-01-31T17:47:21;6.04;100.38
61641;HTU21D;62201;49.966;8.342;2023-01-31T17:49:49;6.02;100.73
61641;HTU21D;62201;49.966;8.342;2023-01-31T17:52:14;6.05;101.00
61641;HTU21D;62201;49.966;8.342;2023-01-31T17:54:40;6.05;100.75
61641;HTU21D;62201;49.966;8.342;2023-01-31T17:57:05;6.08;100.45
61641;HTU21D;62201;49.966;8.342;2023-01-31T17:59:30;6.05;100.65
61641;HTU21D;62201;49.966;8.342;2023-01-31T18:01:56;6.02;100.90
61641;HTU21D;62201;49.966;8.342;2023-01-31T18:04:21;6.00;100.96
61641;HTU21D;62201;49.966;8.342;2023-01-31T18:06:46;6.05;100.57
61641;HTU21D;62201;49.966;8.342;2023-01-31T18:09:12;6.06;100.34
61641;HTU21D;62201;49.966;8.342;2023-01-31T18:11:39;6.08;100.20
61641;HTU21D;62201;49.966;8.342;2023-01-31T18:14:08;6.12;99.54
61641;HTU21D;62201;49.966;8.342;2023-01-31T18:16:33;6.12;99.31
61641;HTU21D;62201;49.966;8.342;2023-01-31T18:18:58;6.12;99.51
61641;HTU21D;62201;49.966;8.342;2023-01-31T18:21:24;6.11;99.80